KDSV/DSV METAR and TAF weather

Enter ICAO airport designator
Station Type Date Time Source
KDSV METAR 2024/06/16 07:54 UTC NOAA

KDSV 160754Z AUTO 13004KT 10SM CLR 10/08 A3022 RMK AO2 SLP240 T01000078


Station Type Date Time Source
KDSV Decoded METAR 2024/06/16 07:54 UTC NOAA

DANSVILLE MUNICIPAL AIRPORT, NY, United States (KDSV) 42-34N 077-43W 198M
Jun 16, 2024 - 03:54 AM EDT / 2024.06.16 0754 UTC
Wind: from the SE (130 degrees) at 5 MPH (4 KT):0
Visibility: 10 mile(s):0
Sky conditions: clear
Temperature: 50.0 F (10.0 C)
Dew Point: 46.0 F (7.8 C)
Relative Humidity: 86%
Pressure (altimeter): 30.22 in. Hg (1023 hPa)
ob: KDSV 160754Z AUTO 13004KT 10SM CLR 10/08 A3022 RMK AO2 SLP240 T01000078
cycle: 8

Station Type Date Time Source
KDSV TAF UTC NOAA

Error!

Example: see airport list